Time;durP1;ratioP1;P1;durP2;ratioP2;P2;SDS_P1;SDS_P2;PMS_P1;PMS_P2;Temp;Humidity;BMP_temperature;BMP_pressure;BME280_temperature;BME280_humidity;BME280_pressure;Samples;Min_cycle;Max_cycle;Signal;HPM_P1;HPM_P2
2021/08/17 00:01:09;;;;;;;16.30;10.48;;;16.40;75.50;;;;;;4974139;28;20050;-65
2021/08/17 00:03:35;;;;;;;13.90;9.65;;;16.40;75.30;;;;;;4982423;28;20078;-65
2021/08/17 00:06:04;;;;;;;14.63;10.25;;;16.40;75.40;;;;;;4985626;28;20057;-65
2021/08/17 00:08:30;;;;;;;15.85;10.45;;;16.40;75.40;;;;;;4975975;28;20395;-65
2021/08/17 00:10:56;;;;;;;17.92;10.98;;;16.40;75.40;;;;;;4973392;28;20157;-65
2021/08/17 00:13:21;;;;;;;17.38;10.77;;;16.30;75.30;;;;;;4984494;28;20113;-65
2021/08/17 00:15:48;;;;;;;13.93;10.20;;;16.30;75.60;;;;;;4980403;28;20092;-65
2021/08/17 00:18:14;;;;;;;15.98;10.88;;;16.30;75.80;;;;;;4983912;28;20030;-65
2021/08/17 00:20:40;;;;;;;15.73;10.60;;;16.30;76.00;;;;;;4980254;28;20027;-65
2021/08/17 00:23:06;;;;;;;15.75;10.80;;;16.30;76.30;;;;;;4976154;28;20043;-65
2021/08/17 00:25:33;;;;;;;15.13;10.70;;;16.30;76.40;;;;;;4974118;28;20046;-65
2021/08/17 00:27:59;;;;;;;17.17;10.95;;;16.30;76.30;;;;;;4982585;28;20030;-63
2021/08/17 00:30:25;;;;;;;17.05;10.48;;;16.30;76.40;;;;;;4981879;28;20429;-63
2021/08/17 00:32:50;;;;;;;17.00;11.38;;;16.30;76.40;;;;;;4978202;28;20078;-63
2021/08/17 00:35:16;;;;;;;15.57;10.85;;;16.30;76.60;;;;;;4971704;28;20070;-63
2021/08/17 00:37:42;;;;;;;16.38;11.05;;;16.20;76.60;;;;;;4981264;28;20066;-63
2021/08/17 00:40:08;;;;;;;12.45;8.60;;;16.30;76.30;;;;;;4983774;28;20100;-64
2021/08/17 00:42:45;;;;;;;4.75;3.95;;;16.20;76.00;;;;;;4984112;28;20117;-62
2021/08/17 00:45:24;;;;;;;1.83;1.63;;;16.10;74.40;;;;;;4983371;28;20117;-65
2021/08/17 00:47:55;;;;;;;1.23;1.13;;;16.00;72.80;;;;;;4983152;28;20630;-65
2021/08/17 00:50:25;;;;;;;0.98;0.95;;;15.80;72.60;;;;;;4970724;28;20038;-65
2021/08/17 00:52:51;;;;;;;1.17;1.00;;;15.60;73.00;;;;;;4978862;28;20453;-65
2021/08/17 00:55:17;;;;;;;1.08;0.98;;;15.50;73.20;;;;;;4985857;28;20104;-65
2021/08/17 00:57:44;;;;;;;1.00;0.90;;;15.30;73.50;;;;;;4985149;28;20053;-65
2021/08/17 01:00:11;;;;;;;0.82;0.73;;;15.20;74.40;;;;;;4978651;28;20039;-66
2021/08/17 01:02:36;;;;;;;1.20;0.80;;;15.10;74.90;;;;;;4970088;28;20084;-65
2021/08/17 01:05:04;;;;;;;1.73;0.70;;;15.00;75.30;;;;;;4975264;28;20042;-65
2021/08/17 01:07:30;;;;;;;1.00;0.70;;;15.00;75.80;;;;;;4977403;28;20050;-65
2021/08/17 01:09:55;;;;;;;2.10;0.73;;;14.90;76.10;;;;;;4987438;28;20054;-65
2021/08/17 01:12:21;;;;;;;2.13;0.93;;;14.90;76.00;;;;;;4981304;28;20045;-65
2021/08/17 01:14:47;;;;;;;1.00;0.90;;;14.90;76.10;;;;;;4998846;28;20034;-65
2021/08/17 01:17:17;;;;;;;1.48;0.80;;;14.90;76.60;;;;;;4983294;28;20034;-66
2021/08/17 01:19:48;;;;;;;1.45;0.88;;;14.90;76.60;;;;;;4975077;28;20031;-63
2021/08/17 01:22:14;;;;;;;1.58;1.33;;;14.90;76.60;;;;;;4990159;28;20065;-63
2021/08/17 01:24:39;;;;;;;1.35;1.00;;;14.90;76.90;;;;;;4984545;28;20085;-62
2021/08/17 01:27:05;;;;;;;1.27;1.17;;;14.90;76.80;;;;;;4978804;28;20030;-62
2021/08/17 01:29:31;;;;;;;1.20;1.10;;;14.90;76.80;;;;;;4975658;28;20026;-63
2021/08/17 01:31:57;;;;;;;1.67;1.30;;;14.80;76.90;;;;;;4998579;28;20129;-63
2021/08/17 01:34:23;;;;;;;1.40;1.30;;;14.80;76.90;;;;;;4977113;28;20046;-62
2021/08/17 01:36:50;;;;;;;1.30;1.20;;;14.80;76.80;;;;;;4973394;28;20702;-63
2021/08/17 01:39:15;;;;;;;1.55;1.45;;;14.80;76.60;;;;;;4982577;28;20053;-63
2021/08/17 01:41:43;;;;;;;1.90;1.52;;;14.70;76.80;;;;;;4980186;28;20798;-63
2021/08/17 01:44:18;;;;;;;1.70;1.35;;;14.80;77.20;;;;;;4980409;28;20103;-63
2021/08/17 01:46:45;;;;;;;2.22;1.70;;;14.70;76.90;;;;;;4990408;28;20066;-63
2021/08/17 01:49:18;;;;;;;2.33;1.63;;;14.70;76.80;;;;;;4976332;28;20041;-62
2021/08/17 01:51:45;;;;;;;3.83;1.90;;;14.70;77.10;;;;;;4973779;28;21493;-63
2021/08/17 01:54:11;;;;;;;1.73;1.40;;;14.60;77.30;;;;;;4978144;28;20181;-63
2021/08/17 01:56:37;;;;;;;2.47;1.70;;;14.60;77.30;;;;;;4984193;28;20057;-63
2021/08/17 01:59:03;;;;;;;1.92;1.48;;;14.60;77.30;;;;;;4979182;28;20402;-63
2021/08/17 02:01:29;;;;;;;2.60;1.80;;;14.60;77.10;;;;;;4979453;28;20030;-63
2021/08/17 02:03:54;;;;;;;2.33;1.67;;;14.60;76.80;;;;;;4971222;28;20038;-63
2021/08/17 02:06:20;;;;;;;3.80;1.90;;;14.60;76.80;;;;;;4990947;28;20683;-63
2021/08/17 02:08:46;;;;;;;2.38;1.75;;;14.50;76.80;;;;;;4973971;28;20129;-63
2021/08/17 02:11:11;;;;;;;1.95;1.67;;;14.50;76.70;;;;;;4989051;28;20572;-63
2021/08/17 02:13:37;;;;;;;2.40;1.88;;;14.50;76.40;;;;;;4982851;28;20047;-63
2021/08/17 02:16:03;;;;;;;2.38;1.73;;;14.50;76.30;;;;;;4983504;28;20100;-63
2021/08/17 02:18:31;;;;;;;2.50;1.80;;;14.40;76.30;;;;;;4976401;28;20030;-62
2021/08/17 02:21:01;;;;;;;1.95;1.75;;;14.40;76.50;;;;;;4978807;28;20050;-62
2021/08/17 02:23:27;;;;;;;3.05;1.67;;;14.30;76.50;;;;;;4972409;28;20066;-63
2021/08/17 02:25:54;;;;;;;2.13;1.80;;;14.30;76.60;;;;;;4977689;28;20093;-63
2021/08/17 02:28:20;;;;;;;2.30;2.03;;;14.20;76.50;;;;;;4979282;28;20498;-63
2021/08/17 02:30:50;;;;;;;2.15;1.73;;;14.10;76.70;;;;;;4976115;28;20129;-63
2021/08/17 02:33:16;;;;;;;2.00;1.80;;;14.10;77.50;;;;;;4980579;28;20069;-63
2021/08/17 02:35:43;;;;;;;3.20;2.30;;;14.10;77.20;;;;;;4982243;28;20057;-63
2021/08/17 02:38:12;;;;;;;1.85;1.60;;;14.00;77.10;;;;;;4973419;28;20572;-63
2021/08/17 02:40:39;;;;;;;3.85;1.80;;;14.00;77.30;;;;;;4973047;28;20046;-63
2021/08/17 02:43:05;;;;;;;1.60;1.45;;;14.00;77.30;;;;;;4978767;28;20049;-63
2021/08/17 02:45:30;;;;;;;2.13;1.88;;;14.00;78.20;;;;;;4977322;28;20030;-63
2021/08/17 02:48:01;;;;;;;2.60;1.90;;;13.90;77.70;;;;;;4979514;28;20039;-63
2021/08/17 02:50:28;;;;;;;2.00;1.67;;;14.00;78.00;;;;;;4982215;28;20620;-63
2021/08/17 02:52:54;;;;;;;1.90;1.70;;;14.00;78.00;;;;;;4978122;28;20053;-63
2021/08/17 02:55:20;;;;;;;2.97;1.75;;;14.10;78.20;;;;;;4969506;28;20092;-63
2021/08/17 02:58:05;;;;;;;2.33;1.80;;;14.10;78.20;;;;;;4979472;28;20113;-63
2021/08/17 03:00:31;;;;;;;2.25;1.80;;;14.10;78.20;;;;;;4972617;28;20047;-63
2021/08/17 03:02:57;;;;;;;1.83;1.63;;;14.20;77.90;;;;;;4981189;28;20158;-63
2021/08/17 03:05:23;;;;;;;2.60;2.35;;;14.30;77.90;;;;;;4981213;28;20125;-62
2021/08/17 03:08:07;;;;;;;3.92;2.30;;;14.30;77.90;;;;;;4978805;28;20170;-63
2021/08/17 03:10:36;;;;;;;4.00;1.80;;;14.40;77.80;;;;;;4971651;28;20438;-62
2021/08/17 03:13:02;;;;;;;2.28;1.73;;;14.40;77.10;;;;;;4973643;28;20046;-63
2021/08/17 03:15:34;;;;;;;3.13;2.03;;;14.40;76.60;;;;;;4977793;28;20038;-63
2021/08/17 03:18:02;;;;;;;2.33;1.85;;;14.40;76.40;;;;;;4997319;28;20035;-63
2021/08/17 03:20:28;;;;;;;1.80;1.70;;;14.40;76.30;;;;;;4983522;28;20026;-63
2021/08/17 03:22:54;;;;;;;2.13;1.90;;;14.30;76.20;;;;;;4985304;28;20035;-62
2021/08/17 03:25:20;;;;;;;2.40;1.70;;;14.30;76.30;;;;;;4977044;28;20104;-63
2021/08/17 03:27:46;;;;;;;3.03;2.20;;;14.30;76.30;;;;;;4988515;28;20030;-63
2021/08/17 03:30:14;;;;;;;2.38;1.95;;;14.20;76.30;;;;;;4977606;28;20652;-63
2021/08/17 03:32:41;;;;;;;2.20;1.77;;;14.20;76.50;;;;;;4976746;28;20034;-63
2021/08/17 03:35:08;;;;;;;2.80;1.88;;;14.20;76.50;;;;;;4976981;28;20043;-63
2021/08/17 03:37:34;;;;;;;2.95;2.20;;;14.20;76.60;;;;;;4980813;28;20061;-63
2021/08/17 03:40:00;;;;;;;2.13;1.90;;;14.10;76.60;;;;;;4981351;28;20058;-63
2021/08/17 03:42:29;;;;;;;3.00;2.05;;;14.10;76.40;;;;;;4980648;28;20542;-63
2021/08/17 03:44:59;;;;;;;2.53;2.10;;;14.10;76.40;;;;;;4998024;28;20467;-63
2021/08/17 03:47:25;;;;;;;2.42;1.90;;;14.00;76.20;;;;;;4972306;28;21108;-63
2021/08/17 03:49:51;;;;;;;3.78;2.40;;;14.00;76.10;;;;;;4996319;28;20061;-62
2021/08/17 03:52:17;;;;;;;2.90;2.17;;;13.90;76.30;;;;;;4974515;28;20063;-65
2021/08/17 03:54:42;;;;;;;2.47;2.05;;;13.80;76.10;;;;;;4985761;28;20122;-65
2021/08/17 03:57:08;;;;;;;4.10;2.20;;;13.80;76.30;;;;;;4977232;28;20034;-65
2021/08/17 03:59:33;;;;;;;4.47;2.47;;;13.70;76.40;;;;;;4986239;28;20070;-65
2021/08/17 04:01:59;;;;;;;3.92;2.58;;;13.60;76.00;;;;;;4982000;28;20037;-65
2021/08/17 04:04:25;;;;;;;2.92;2.30;;;13.60;76.00;;;;;;4983654;28;20034;-65
2021/08/17 04:06:50;;;;;;;3.72;2.50;;;13.50;77.00;;;;;;4983392;28;20031;-65
2021/08/17 04:09:16;;;;;;;7.03;2.13;;;13.40;76.50;;;;;;4983150;28;20085;-65
2021/08/17 04:11:41;;;;;;;3.72;2.20;;;13.40;77.50;;;;;;4980614;28;20102;-66
2021/08/17 04:14:07;;;;;;;2.53;2.30;;;13.30;76.60;;;;;;4983502;28;20461;-65
2021/08/17 04:16:33;;;;;;;3.00;2.05;;;13.30;76.60;;;;;;4975923;28;20100;-65
2021/08/17 04:18:58;;;;;;;4.50;2.90;;;13.20;76.80;;;;;;4991888;28;20065;-65
2021/08/17 04:21:24;;;;;;;3.97;2.50;;;13.10;76.70;;;;;;4979599;28;20074;-65
2021/08/17 04:23:51;;;;;;;3.25;2.60;;;13.10;76.80;;;;;;4981198;28;20760;-65
2021/08/17 04:26:17;;;;;;;4.18;2.67;;;13.10;77.00;;;;;;4981991;28;20077;-65
2021/08/17 04:28:42;;;;;;;5.07;2.45;;;13.00;77.00;;;;;;4973838;28;20480;-66
2021/08/17 04:31:08;;;;;;;4.18;2.47;;;13.00;76.80;;;;;;4979950;28;20034;-65
2021/08/17 04:33:34;;;;;;;3.92;2.60;;;13.00;76.50;;;;;;4984123;28;20049;-65
2021/08/17 04:36:00;;;;;;;3.38;2.67;;;12.90;76.10;;;;;;4977293;28;20034;-65
2021/08/17 04:38:26;;;;;;;3.25;2.45;;;12.90;76.00;;;;;;4987388;28;20076;-65
2021/08/17 04:40:51;;;;;;;3.75;2.70;;;12.80;76.00;;;;;;4986551;28;20045;-66
2021/08/17 04:43:17;;;;;;;4.00;2.90;;;12.80;76.10;;;;;;4992747;28;20117;-65
2021/08/17 04:45:42;;;;;;;4.22;2.65;;;12.80;76.10;;;;;;4980100;28;20550;-65
2021/08/17 04:48:08;;;;;;;2.80;2.40;;;12.70;76.20;;;;;;4975955;28;20031;-66
2021/08/17 04:50:34;;;;;;;4.38;2.92;;;12.70;76.50;;;;;;4983284;28;20121;-65
2021/08/17 04:52:59;;;;;;;4.53;2.38;;;12.70;76.80;;;;;;4996075;28;20038;-65
2021/08/17 04:55:25;;;;;;;5.40;2.50;;;12.70;76.90;;;;;;4986780;28;20037;-65
2021/08/17 04:57:58;;;;;;;4.15;2.65;;;12.70;76.80;;;;;;4980567;28;20529;-65
2021/08/17 05:00:26;;;;;;;3.20;2.53;;;12.70;77.20;;;;;;4975046;28;20043;-65
2021/08/17 05:02:52;;;;;;;4.82;2.55;;;12.60;77.10;;;;;;4976487;28;20120;-65
2021/08/17 05:05:18;;;;;;;3.90;2.67;;;12.60;77.10;;;;;;4985932;28;20091;-66
2021/08/17 05:07:45;;;;;;;3.55;2.80;;;12.60;77.00;;;;;;4983828;28;20061;-66
2021/08/17 05:10:15;;;;;;;4.40;3.05;;;12.60;77.30;;;;;;4982459;28;20413;-66
2021/08/17 05:12:41;;;;;;;4.72;2.95;;;12.60;78.00;;;;;;4977545;28;20041;-66
2021/08/17 05:15:08;;;;;;;4.93;4.00;;;12.60;78.10;;;;;;4976724;28;20027;-65
2021/08/17 05:17:34;;;;;;;4.72;3.40;;;12.70;78.60;;;;;;4984551;28;20050;-65
2021/08/17 05:20:00;;;;;;;4.50;2.90;;;12.80;78.60;;;;;;4969030;28;20698;-66
2021/08/17 05:22:26;;;;;;;3.70;2.60;;;12.80;78.60;;;;;;4977536;28;20034;-65
2021/08/17 05:24:51;;;;;;;6.25;2.45;;;12.80;78.30;;;;;;4972718;28;20446;-65
2021/08/17 05:27:17;;;;;;;3.25;2.60;;;12.90;78.20;;;;;;4972769;28;20077;-65
2021/08/17 05:29:43;;;;;;;4.28;2.67;;;13.00;78.40;;;;;;4967096;28;20117;-65
2021/08/17 05:32:09;;;;;;;4.40;2.70;;;13.00;78.20;;;;;;4978012;28;20033;-65
2021/08/17 05:34:35;;;;;;;4.65;2.70;;;13.10;78.20;;;;;;4982525;28;20045;-66
2021/08/17 05:37:01;;;;;;;5.45;2.60;;;13.10;78.20;;;;;;4987378;28;20406;-65
2021/08/17 05:39:27;;;;;;;9.05;2.72;;;13.20;78.20;;;;;;4982309;28;20081;-65
2021/08/17 05:41:52;;;;;;;4.97;2.65;;;13.30;77.90;;;;;;4973272;28;20454;-65
2021/08/17 05:44:18;;;;;;;3.80;2.38;;;13.30;77.50;;;;;;4972267;28;20040;-65
2021/08/17 05:46:45;;;;;;;4.65;2.85;;;13.40;78.20;;;;;;4979992;28;20474;-66
2021/08/17 05:49:10;;;;;;;4.93;2.47;;;13.40;77.20;;;;;;4978356;28;20066;-65
2021/08/17 05:51:36;;;;;;;3.95;2.72;;;13.50;77.00;;;;;;4975609;28;20066;-65
2021/08/17 05:54:02;;;;;;;3.58;2.90;;;13.50;76.80;;;;;;4977244;28;20053;-66
2021/08/17 05:56:28;;;;;;;6.50;2.88;;;13.50;76.50;;;;;;4980922;28;20068;-65
2021/08/17 05:58:54;;;;;;;4.00;3.08;;;13.60;76.60;;;;;;4977263;28;20030;-66
2021/08/17 06:01:19;;;;;;;4.85;2.97;;;13.60;76.50;;;;;;4979199;28;20042;-66
2021/08/17 06:03:45;;;;;;;3.90;2.58;;;13.60;76.60;;;;;;4980107;28;20037;-66
2021/08/17 06:06:11;;;;;;;3.13;2.33;;;13.60;76.70;;;;;;4973925;28;20465;-65
2021/08/17 06:08:36;;;;;;;4.13;2.70;;;13.60;76.30;;;;;;4982375;28;20127;-66
2021/08/17 06:11:02;;;;;;;4.70;3.05;;;13.70;75.70;;;;;;4978808;28;20048;-66
2021/08/17 06:13:28;;;;;;;4.57;2.70;;;13.70;75.90;;;;;;4994692;28;20126;-66
2021/08/17 06:15:54;;;;;;;4.03;2.90;;;13.70;75.40;;;;;;4975528;28;20056;-66
2021/08/17 06:18:19;;;;;;;5.20;2.83;;;13.80;75.50;;;;;;4981259;28;20030;-65
2021/08/17 06:20:45;;;;;;;3.72;2.70;;;13.80;75.30;;;;;;4983098;28;20038;-65
2021/08/17 06:23:11;;;;;;;6.03;3.00;;;13.80;74.40;;;;;;4969973;28;20045;-65
2021/08/17 06:25:37;;;;;;;4.88;2.53;;;13.90;74.60;;;;;;4977253;28;20097;-66
2021/08/17 06:28:12;;;;;;;5.13;2.95;;;13.90;74.90;;;;;;4970167;28;20041;-66
2021/08/17 06:30:38;;;;;;;;;;;14.00;74.40;;;;;;4968628;28;20034;-66
2021/08/17 06:33:04;;;;;;;6.47;2.75;;;14.00;74.60;;;;;;4971140;28;19926;-65
2021/08/17 06:35:30;;;;;;;3.75;2.78;;;14.00;73.90;;;;;;4961801;28;20038;-65
2021/08/17 06:37:56;;;;;;;7.10;3.38;;;14.00;73.90;;;;;;4984185;28;20039;-66
2021/08/17 06:40:22;;;;;;;5.90;2.88;;;14.10;74.00;;;;;;4960717;28;20038;-64
2021/08/17 06:42:48;;;;;;;6.55;2.92;;;14.10;74.30;;;;;;4939998;28;20053;-65
2021/08/17 06:45:14;;;;;;;3.83;2.63;;;14.20;74.40;;;;;;4946617;28;20034;-65
2021/08/17 06:47:45;;;;;;;4.63;2.95;;;14.20;73.70;;;;;;4951439;28;20042;-66
2021/08/17 06:50:11;;;;;;;4.10;2.92;;;14.20;73.40;;;;;;4955104;28;20034;-65
2021/08/17 06:52:36;;;;;;;3.85;2.97;;;14.20;73.70;;;;;;4948056;28;20100;-65
2021/08/17 06:55:02;;;;;;;5.47;3.00;;;14.30;73.60;;;;;;4953596;28;20030;-66
2021/08/17 06:57:28;;;;;;;5.15;2.67;;;14.30;73.70;;;;;;4953293;28;20035;-65
2021/08/17 06:59:54;;;;;;;5.93;3.20;;;14.40;73.60;;;;;;4951460;28;20069;-66
2021/08/17 07:02:20;;;;;;;4.05;2.55;;;14.50;73.00;;;;;;4960756;28;20035;-65
2021/08/17 07:04:45;;;;;;;3.17;2.60;;;14.50;73.20;;;;;;4952161;28;20035;-65
2021/08/17 07:07:11;;;;;;;5.45;2.75;;;14.60;73.30;;;;;;4952808;28;20418;-66
2021/08/17 07:09:36;;;;;;;4.75;2.72;;;14.60;72.50;;;;;;4951570;28;20038;-66
2021/08/17 07:12:02;;;;;;;5.00;3.17;;;14.70;72.10;;;;;;4960206;28;20960;-65
2021/08/17 07:14:28;;;;;;;6.45;3.20;;;14.70;71.80;;;;;;4953081;28;20043;-65
2021/08/17 07:16:53;;;;;;;3.55;2.75;;;14.70;70.80;;;;;;4954126;28;20050;-66
2021/08/17 07:19:19;;;;;;;4.55;3.20;;;14.80;70.80;;;;;;4950693;28;20836;-65
2021/08/17 07:21:45;;;;;;;3.70;2.45;;;14.80;70.70;;;;;;4954601;28;20561;-65
2021/08/17 07:24:10;;;;;;;3.88;2.70;;;14.80;71.20;;;;;;4955898;28;20047;-66
2021/08/17 07:26:36;;;;;;;6.10;2.80;;;14.80;71.50;;;;;;4957535;28;20410;-65
2021/08/17 07:29:02;;;;;;;3.60;2.50;;;14.90;71.40;;;;;;4952132;28;20062;-65
2021/08/17 07:31:27;;;;;;;3.88;2.75;;;14.90;71.10;;;;;;4951516;28;20049;-66
2021/08/17 07:33:53;;;;;;;6.60;2.97;;;15.00;70.40;;;;;;4955853;28;20078;-65
2021/08/17 07:36:19;;;;;;;7.25;3.08;;;15.00;69.60;;;;;;4954683;28;20038;-66
2021/08/17 07:38:44;;;;;;;4.70;3.03;;;15.00;69.20;;;;;;4952533;28;20137;-66
2021/08/17 07:41:10;;;;;;;5.55;3.10;;;15.00;69.30;;;;;;4967728;28;20038;-66
2021/08/17 07:43:36;;;;;;;5.75;2.58;;;15.10;69.80;;;;;;4973830;28;22376;-65
2021/08/17 07:46:01;;;;;;;4.30;2.72;;;15.10;70.00;;;;;;4984936;28;20030;-66
2021/08/17 07:48:27;;;;;;;4.90;3.00;;;15.20;70.20;;;;;;4984067;28;20586;-65
2021/08/17 07:50:53;;;;;;;5.05;3.25;;;15.20;70.00;;;;;;4967622;28;20042;-66
2021/08/17 07:53:19;;;;;;;4.13;2.90;;;15.30;68.80;;;;;;4979338;28;20518;-66
2021/08/17 07:55:44;;;;;;;3.00;2.60;;;15.30;69.20;;;;;;4979880;28;20047;-65
2021/08/17 07:58:10;;;;;;;5.07;3.17;;;15.30;69.20;;;;;;4979666;28;20322;-66
2021/08/17 08:00:36;;;;;;;4.90;2.75;;;15.40;69.30;;;;;;4977712;28;20042;-65
2021/08/17 08:03:02;;;;;;;5.45;2.85;;;15.50;69.50;;;;;;4980261;28;20034;-66
2021/08/17 08:05:28;;;;;;;4.07;2.92;;;15.50;68.70;;;;;;4983561;28;20495;-66
2021/08/17 08:07:53;;;;;;;3.75;2.45;;;15.60;68.60;;;;;;5000136;28;20464;-66
2021/08/17 08:10:19;;;;;;;5.22;2.85;;;15.60;68.80;;;;;;4981287;28;20053;-66
2021/08/17 08:12:45;;;;;;;3.95;3.05;;;15.70;68.80;;;;;;4972528;28;20039;-66
2021/08/17 08:15:11;;;;;;;3.78;2.92;;;15.70;68.10;;;;;;4983067;28;20034;-66
2021/08/17 08:17:37;;;;;;;4.40;3.22;;;15.80;67.60;;;;;;4998610;28;20038;-66
2021/08/17 08:20:03;;;;;;;5.40;3.05;;;15.90;67.50;;;;;;4971394;28;20043;-66
2021/08/17 08:22:29;;;;;;;6.07;3.15;;;15.90;68.00;;;;;;4969301;28;20030;-66
2021/08/17 08:24:55;;;;;;;5.22;3.03;;;16.00;68.20;;;;;;4967863;28;20046;-66
2021/08/17 08:27:20;;;;;;;4.55;3.45;;;15.90;68.10;;;;;;4965475;28;20030;-66
2021/08/17 08:29:46;;;;;;;3.75;3.00;;;16.00;68.20;;;;;;4981183;28;20076;-66
2021/08/17 08:32:12;;;;;;;6.07;3.33;;;16.10;68.00;;;;;;4979068;28;20062;-66
2021/08/17 08:34:39;;;;;;;6.22;3.83;;;16.20;67.00;;;;;;4979491;28;20035;-65
2021/08/17 08:37:04;;;;;;;4.13;3.35;;;16.20;66.50;;;;;;4981187;28;20038;-66
2021/08/17 08:39:33;;;;;;;5.78;3.28;;;16.20;67.40;;;;;;4984299;28;20438;-66
2021/08/17 08:41:58;;;;;;;4.72;3.15;;;16.20;67.60;;;;;;4997188;28;20031;-66
2021/08/17 08:44:24;;;;;;;4.30;3.38;;;16.30;67.40;;;;;;4980455;28;20085;-66
2021/08/17 08:46:51;;;;;;;4.97;3.22;;;16.40;67.80;;;;;;4983071;28;20186;-66
2021/08/17 08:49:18;;;;;;;5.57;3.50;;;16.40;67.80;;;;;;4980663;28;20133;-63
2021/08/17 08:51:44;;;;;;;6.32;3.47;;;16.60;66.90;;;;;;4982298;28;20583;-63
2021/08/17 08:54:09;;;;;;;3.58;2.88;;;16.60;66.90;;;;;;4981156;28;20042;-63
2021/08/17 08:56:35;;;;;;;6.20;3.42;;;16.70;67.30;;;;;;4974439;28;20229;-63
2021/08/17 08:59:01;;;;;;;4.53;3.40;;;16.80;66.50;;;;;;4984426;28;20057;-63
2021/08/17 09:01:27;;;;;;;5.90;3.10;;;16.80;66.00;;;;;;4984550;28;20026;-63
2021/08/17 09:03:56;;;;;;;5.35;3.22;;;16.90;65.50;;;;;;4998183;28;20482;-63
2021/08/17 09:06:27;;;;;;;4.10;3.20;;;17.00;66.20;;;;;;4983274;28;20038;-63
2021/08/17 09:09:08;;;;;;;3.47;2.75;;;17.10;65.90;;;;;;4985391;28;20526;-63
2021/08/17 09:11:35;;;;;;;5.05;2.97;;;17.20;65.90;;;;;;4959123;28;20518;-63
2021/08/17 09:14:30;;;;;;;5.70;3.47;;;17.30;66.20;;;;;;4963742;28;20034;-63
2021/08/17 09:17:00;;;;;;;5.03;3.53;;;17.50;65.70;;;;;;4966018;28;20077;-63
2021/08/17 09:19:30;;;;;;;5.25;3.75;;;17.50;65.40;;;;;;4967479;28;20034;-63
2021/08/17 09:21:59;;;;;;;3.92;3.15;;;17.60;65.00;;;;;;4977076;28;20467;-63
2021/08/17 09:24:34;;;;;;;5.55;3.00;;;17.70;65.20;;;;;;4967125;28;20088;-63
2021/08/17 09:27:13;;;;;;;4.97;3.00;;;17.80;64.20;;;;;;4978266;28;20321;-63
2021/08/17 09:29:41;;;;;;;5.15;3.30;;;17.80;64.40;;;;;;4964711;28;20030;-63
2021/08/17 09:32:17;;;;;;;4.45;3.38;;;17.90;63.60;;;;;;4965781;28;20667;-63
2021/08/17 09:34:46;;;;;;;5.90;2.95;;;18.00;63.00;;;;;;4977527;28;20141;-63
2021/08/17 09:37:12;;;;;;;5.15;3.03;;;17.90;63.80;;;;;;4980779;28;20038;-63
2021/08/17 09:39:47;;;;;;;5.72;3.35;;;18.00;63.60;;;;;;4981975;28;20045;-63
2021/08/17 09:42:20;;;;;;;4.38;3.13;;;18.10;62.80;;;;;;4977914;28;20469;-63
2021/08/17 09:45:02;;;;;;;4.90;3.03;;;18.10;62.10;;;;;;4983812;28;20038;-63
2021/08/17 09:47:28;;;;;;;3.88;2.92;;;18.10;62.90;;;;;;5001192;28;20063;-63
2021/08/17 09:49:53;;;;;;;4.90;3.30;;;18.20;63.40;;;;;;4976512;28;20038;-63
2021/08/17 09:52:19;;;;;;;4.15;2.90;;;18.20;62.90;;;;;;4973038;28;20039;-63
2021/08/17 09:54:47;;;;;;;4.97;2.92;;;18.30;62.80;;;;;;4985807;28;20042;-63
2021/08/17 09:57:14;;;;;;;4.28;3.03;;;18.30;62.80;;;;;;4974682;28;20515;-64
2021/08/17 09:59:42;;;;;;;3.22;2.55;;;18.40;62.40;;;;;;4974016;28;20045;-63
2021/08/17 10:02:08;;;;;;;4.70;2.80;;;18.50;62.80;;;;;;4979388;28;20066;-63
2021/08/17 10:04:36;;;;;;;4.03;2.78;;;18.50;62.40;;;;;;4972915;28;20185;-63
2021/08/17 10:07:03;;;;;;;4.38;2.70;;;18.60;62.10;;;;;;4969328;28;20899;-64
2021/08/17 10:09:30;;;;;;;4.03;2.80;;;18.60;61.90;;;;;;4970702;28;21634;-64
2021/08/17 10:11:56;;;;;;;4.00;3.13;;;18.70;61.90;;;;;;4972441;28;20623;-63
2021/08/17 10:14:22;;;;;;;5.70;3.35;;;18.70;61.20;;;;;;4983215;28;20490;-63
2021/08/17 10:16:48;;;;;;;4.22;3.17;;;18.70;60.80;;;;;;4982845;28;20030;-63
2021/08/17 10:19:31;;;;;;;3.35;2.70;;;18.70;60.50;;;;;;4983159;28;20038;-64
2021/08/17 10:21:58;;;;;;;3.03;2.70;;;18.70;60.50;;;;;;5002952;28;20027;-63
2021/08/17 10:24:36;;;;;;;5.45;3.30;;;18.70;61.30;;;;;;4971324;28;20518;-64
2021/08/17 10:27:26;;;;;;;4.57;3.28;;;18.70;60.20;;;;;;4978753;28;20118;-63
2021/08/17 10:29:55;;;;;;;3.45;2.85;;;18.80;59.80;;;;;;4983076;28;20093;-64
2021/08/17 10:32:42;;;;;;;5.07;3.15;;;18.80;60.30;;;;;;4984100;28;20422;-63
2021/08/17 10:35:31;;;;;;;4.20;2.72;;;18.90;59.50;;;;;;4982267;28;20026;-66
2021/08/17 10:38:11;;;;;;;4.45;2.72;;;18.90;59.90;;;;;;4979154;28;20569;-63
2021/08/17 10:40:52;;;;;;;4.93;2.70;;;18.90;60.30;;;;;;4980939;28;20065;-63
2021/08/17 10:43:22;;;;;;;4.25;3.20;;;19.00;60.60;;;;;;4982823;28;20088;-63
2021/08/17 10:45:55;;;;;;;4.38;3.20;;;19.00;61.50;;;;;;4986614;28;20085;-63
2021/08/17 10:48:46;;;;;;;;;;;;;;;;;;;;;
2021/08/17 10:51:38;;;;;;;6.03;2.67;;;19.20;60.00;;;;;;4980831;28;20049;-64
2021/08/17 10:54:03;;;;;;;3.17;2.63;;;19.40;60.70;;;;;;4978718;28;20045;-63
2021/08/17 10:56:31;;;;;;;4.57;2.90;;;19.40;61.30;;;;;;4974228;28;20027;-63
2021/08/17 10:58:57;;;;;;;3.80;3.00;;;19.50;60.60;;;;;;4996744;28;20061;-63
2021/08/17 11:01:39;;;;;;;3.65;2.63;;;19.70;59.80;;;;;;4983513;28;20030;-63
2021/08/17 11:04:18;;;;;;;4.88;3.10;;;19.70;58.90;;;;;;4984840;28;20041;-64
2021/08/17 11:06:57;;;;;;;5.32;3.30;;;19.80;57.80;;;;;;4994220;28;20043;-63
2021/08/17 11:09:30;;;;;;;3.78;3.10;;;19.80;57.70;;;;;;4976581;28;20307;-63
2021/08/17 11:12:08;;;;;;;3.38;2.90;;;19.90;58.60;;;;;;4974841;28;20502;-63
2021/08/17 11:14:36;;;;;;;5.10;3.17;;;19.90;57.30;;;;;;4981183;28;20049;-64
2021/08/17 11:17:11;;;;;;;5.45;3.00;;;19.90;57.60;;;;;;4981387;28;20043;-63
2021/08/17 11:19:45;;;;;;;4.38;2.90;;;20.00;57.00;;;;;;4980989;28;20042;-64
2021/08/17 11:22:18;;;;;;;3.70;2.45;;;20.00;57.10;;;;;;4969022;28;20043;-64
2021/08/17 11:24:49;;;;;;;3.45;2.67;;;20.00;56.20;;;;;;4977096;28;20037;-64
2021/08/17 11:27:21;;;;;;;3.88;2.97;;;20.00;57.10;;;;;;4978585;28;20026;-64
2021/08/17 11:29:56;;;;;;;4.38;3.00;;;20.10;56.10;;;;;;4983278;28;20058;-64
2021/08/17 11:32:32;;;;;;;5.53;2.70;;;20.10;56.20;;;;;;4994498;28;20034;-64
2021/08/17 11:35:09;;;;;;;4.05;2.53;;;20.10;56.20;;;;;;4981709;28;20042;-63
2021/08/17 11:37:37;;;;;;;4.07;2.80;;;20.20;56.10;;;;;;4986029;28;20413;-64
2021/08/17 11:40:06;;;;;;;3.55;2.42;;;20.20;56.20;;;;;;4986240;28;20096;-64
2021/08/17 11:42:34;;;;;;;3.05;2.50;;;20.20;55.90;;;;;;4995527;28;20031;-63
2021/08/17 11:45:12;;;;;;;3.95;2.55;;;20.30;55.90;;;;;;4985894;28;20027;-64
2021/08/17 11:47:40;;;;;;;3.00;2.70;;;20.30;55.20;;;;;;4986567;28;20105;-64
2021/08/17 11:50:11;;;;;;;5.07;3.00;;;20.30;54.40;;;;;;4987883;28;20110;-64
2021/08/17 11:52:48;;;;;;;3.20;2.50;;;20.30;54.10;;;;;;4980087;28;20070;-64
2021/08/17 11:55:19;;;;;;;3.95;2.70;;;20.30;54.80;;;;;;4983632;28;20469;-64
2021/08/17 11:57:51;;;;;;;4.25;2.45;;;20.30;55.60;;;;;;4983828;28;20117;-64
2021/08/17 12:00:25;;;;;;;3.65;2.67;;;20.40;56.10;;;;;;4985692;28;20158;-64
2021/08/17 12:02:57;;;;;;;6.47;3.15;;;20.40;55.30;;;;;;4980909;28;20023;-64
2021/08/17 12:05:26;;;;;;;2.85;2.60;;;20.40;56.00;;;;;;4996859;28;20030;-64
2021/08/17 12:07:53;;;;;;;4.00;2.90;;;20.50;56.10;;;;;;4986255;28;20560;-64
2021/08/17 12:10:28;;;;;;;5.35;2.72;;;20.60;55.70;;;;;;4999169;28;20053;-64
2021/08/17 12:13:03;;;;;;;3.30;2.30;;;20.60;54.60;;;;;;4982331;28;20134;-64
2021/08/17 12:15:48;;;;;;;3.38;2.53;;;20.70;54.90;;;;;;4993656;28;20598;-64
2021/08/17 12:18:17;;;;;;;3.78;2.75;;;20.70;54.70;;;;;;4988705;28;20085;-64
2021/08/17 12:20:49;;;;;;;4.10;2.90;;;20.80;54.50;;;;;;4996978;28;20058;-64
2021/08/17 12:23:22;;;;;;;3.90;2.70;;;20.80;54.60;;;;;;5000535;28;20407;-64
2021/08/17 12:25:50;;;;;;;3.88;2.75;;;20.90;54.20;;;;;;4984632;28;20053;-64
2021/08/17 12:28:34;;;;;;;3.25;2.47;;;20.90;53.40;;;;;;4986341;28;20057;-64
2021/08/17 12:31:09;;;;;;;3.08;2.72;;;20.90;52.10;;;;;;4984862;28;20097;-64
2021/08/17 12:33:38;;;;;;;3.95;2.85;;;20.90;52.70;;;;;;4987286;28;20121;-64
2021/08/17 12:36:04;;;;;;;3.45;2.70;;;20.90;52.50;;;;;;4985645;28;20501;-65
2021/08/17 12:38:40;;;;;;;3.03;2.60;;;20.90;53.00;;;;;;4986291;28;20077;-64
2021/08/17 12:41:06;;;;;;;3.97;2.85;;;20.80;53.50;;;;;;4980998;28;20429;-64
2021/08/17 12:43:38;;;;;;;3.25;2.60;;;20.80;53.40;;;;;;4986096;28;20887;-64
2021/08/17 12:46:12;;;;;;;4.57;2.70;;;20.90;52.30;;;;;;5001985;28;20038;-64
2021/08/17 12:48:43;;;;;;;2.88;2.50;;;20.90;51.40;;;;;;4992381;28;20177;-64
2021/08/17 12:51:18;;;;;;;3.83;2.60;;;20.90;52.40;;;;;;4985702;28;20128;-64
2021/08/17 12:53:43;;;;;;;3.67;2.88;;;20.90;52.50;;;;;;4986697;28;20047;-64